Time;durP1;ratioP1;P1;durP2;ratioP2;P2;SDS_P1;SDS_P2;PMS_P1;PMS_P2;Temp;Humidity;BMP_temperature;BMP_pressure;BME280_temperature;BME280_humidity;BME280_pressure;Samples;Min_cycle;Max_cycle;Signal;HPM_P1;HPM_P2
2023/10/19 00:00:20;;;;;;;;;;;10.70;86.20;;;;;;5095525;28;20381;-63
2023/10/19 00:02:52;;;;;;;;;;;10.60;86.30;;;;;;5094490;28;19928;-62
2023/10/19 00:05:26;;;;;;;;;;;10.60;86.30;;;;;;5109561;27;20001;-62
2023/10/19 00:08:00;;;;;;;;;;;10.60;86.40;;;;;;5095887;28;19927;-62
2023/10/19 00:10:35;;;;;;;;;;;10.60;86.40;;;;;;5095269;28;19931;-62
2023/10/19 00:13:08;;;;;;;;;;;10.60;86.30;;;;;;5091450;28;20444;-61
2023/10/19 00:15:47;;;;;;;;;;;10.60;86.70;;;;;;5094295;28;19928;-62
2023/10/19 00:18:21;;;;;;;;;;;10.50;86.70;;;;;;5092854;28;19939;-60
2023/10/19 00:20:59;;;;;;;;;;;10.50;86.70;;;;;;5093622;28;20397;-62
2023/10/19 00:23:34;;;;;;;;;;;10.50;86.60;;;;;;5096330;28;19928;-63
2023/10/19 00:26:10;;;;;;;;;;;10.60;86.70;;;;;;5099806;28;19935;-62
2023/10/19 00:28:52;;;;;;;;;;;10.50;86.90;;;;;;5099313;28;19928;-62
2023/10/19 00:31:27;;;;;;;;;;;10.50;86.80;;;;;;5096194;28;19927;-63
2023/10/19 00:34:00;;;;;;;;;;;10.50;86.90;;;;;;5094256;28;20423;-63
2023/10/19 00:36:34;;;;;;;;;;;10.50;86.90;;;;;;5099016;28;19971;-62
2023/10/19 00:39:14;;;;;;;;;;;10.50;87.10;;;;;;5096447;28;19924;-66
2023/10/19 00:41:48;;;;;;;;;;;10.50;87.00;;;;;;5085045;28;20616;-62
2023/10/19 00:44:25;;;;;;;;;;;10.50;87.00;;;;;;5084949;28;19928;-67
2023/10/19 00:47:03;;;;;;;;;;;10.50;87.00;;;;;;5089360;28;20017;-66
2023/10/19 00:49:38;;;;;;;;;;;10.50;87.10;;;;;;5091314;28;19928;-66
2023/10/19 00:52:19;;;;;;;;;;;10.50;87.20;;;;;;5083696;28;19932;-66
2023/10/19 00:54:58;;;;;;;;;;;10.50;87.20;;;;;;5094406;28;19932;-67
2023/10/19 00:57:34;;;;;;;;;;;10.50;87.10;;;;;;5107692;28;19970;-67
2023/10/19 01:00:12;;;;;;;;;;;10.50;87.20;;;;;;5096867;28;19959;-67
2023/10/19 01:02:45;;;;;;;;;;;10.50;87.20;;;;;;5093981;28;19974;-66
2023/10/19 01:05:21;;;;;;;;;;;10.50;87.00;;;;;;5093528;28;19995;-66
2023/10/19 01:07:57;;;;;;;;;;;10.50;87.40;;;;;;5093255;28;19932;-66
2023/10/19 01:10:32;;;;;;;;;;;10.40;87.40;;;;;;5090476;28;20072;-66
2023/10/19 01:13:05;;;;;;;;;;;10.40;87.40;;;;;;5086454;28;19932;-67
2023/10/19 01:15:40;;;;;;;;;;;10.50;87.40;;;;;;5105412;28;19924;-67
2023/10/19 01:18:14;;;;;;;;;;;10.50;87.30;;;;;;5096879;28;19967;-66
2023/10/19 01:20:51;;;;;;;;;;;10.50;87.40;;;;;;5103128;28;19924;-68
2023/10/19 01:23:27;;;;;;;;;;;10.50;87.60;;;;;;5105147;28;19928;-67
2023/10/19 01:26:07;;;;;;;;;;;10.50;87.50;;;;;;5089888;28;19955;-66
2023/10/19 01:28:43;;;;;;;;;;;10.50;87.70;;;;;;5089935;28;20394;-67
2023/10/19 01:31:22;;;;;;;;;;;10.40;87.90;;;;;;5093243;28;20417;-66
2023/10/19 01:33:55;;;;;;;;;;;10.40;87.80;;;;;;5090855;28;19928;-66
2023/10/19 01:36:32;;;;;;;;;;;10.40;87.90;;;;;;5080748;28;19932;-66
2023/10/19 01:39:10;;;;;;;;;;;10.40;88.00;;;;;;5068038;28;20263;-67
2023/10/19 01:41:43;;;;;;;;;;;10.40;87.70;;;;;;5087553;28;20061;-65
2023/10/19 01:44:15;;;;;;;;;;;10.40;87.80;;;;;;5094227;28;19930;-66
2023/10/19 01:46:43;;;;;;;;;;;10.50;87.80;;;;;;5091344;28;20382;-66
2023/10/19 01:49:25;;;;;;;;;;;10.50;88.00;;;;;;5098310;28;20370;-66
2023/10/19 01:51:58;;;;;;;;;;;10.50;88.10;;;;;;5095013;28;19924;-65
2023/10/19 01:54:34;;;;;;;;;;;10.50;88.20;;;;;;5097595;28;19923;-63
2023/10/19 01:57:08;;;;;;;;;;;10.40;88.20;;;;;;5091632;28;20058;-61
2023/10/19 01:59:44;;;;;;;;;;;10.40;88.30;;;;;;5094898;28;19946;-61
2023/10/19 02:02:16;;;;;;;;;;;10.50;88.30;;;;;;5087748;28;19987;-61
2023/10/19 02:04:53;;;;;;;;;;;10.50;88.20;;;;;;5097445;28;20027;-61
2023/10/19 02:07:25;;;;;;;;;;;10.50;88.20;;;;;;5096961;27;19935;-61
2023/10/19 02:10:00;;;;;;;;;;;10.50;88.20;;;;;;5097748;28;20775;-61
2023/10/19 02:12:34;;;;;;;;;;;10.50;88.20;;;;;;5099607;28;20419;-63
2023/10/19 02:15:08;;;;;;;;;;;10.50;88.20;;;;;;5096704;28;19924;-61
2023/10/19 02:17:40;;;;;;;;;;;10.50;88.00;;;;;;5100791;28;19981;-61
2023/10/19 02:20:17;;;;;;;;;;;10.50;87.80;;;;;;5097863;28;19924;-61
2023/10/19 02:22:52;;;;;;;;;;;10.50;88.10;;;;;;5098360;27;19928;-62
2023/10/19 02:25:31;;;;;;;;;;;10.50;87.90;;;;;;5100567;27;19931;-61
2023/10/19 02:28:06;;;;;;;;;;;10.50;88.00;;;;;;5096941;28;19942;-62
2023/10/19 02:30:40;;;;;;;;;;;10.50;87.90;;;;;;5096006;28;19928;-61
2023/10/19 02:33:14;;;;;;;;;;;10.50;87.90;;;;;;5098402;28;20007;-61
2023/10/19 02:35:47;;;;;;;;;;;10.50;87.90;;;;;;5099540;28;19927;-61
2023/10/19 02:38:22;;;;;;;;;;;10.40;88.00;;;;;;5098276;28;20301;-61
2023/10/19 02:40:57;;;;;;;;;;;10.40;88.00;;;;;;5098561;28;19927;-62
2023/10/19 02:43:24;;;;;;;;;;;10.50;88.10;;;;;;5094337;28;19932;-62
2023/10/19 02:45:57;;;;;;;;;;;10.40;88.30;;;;;;5108646;27;20437;-62
2023/10/19 02:48:30;;;;;;;;;;;10.40;88.30;;;;;;5096745;28;20404;-60
2023/10/19 02:51:10;;;;;;;;;;;10.40;88.50;;;;;;5074648;28;20405;-61
2023/10/19 02:53:44;;;;;;;;;;;10.50;88.40;;;;;;5091945;28;19932;-61
2023/10/19 02:56:20;;;;;;;;;;;10.50;88.20;;;;;;5083276;28;19928;-62
2023/10/19 02:58:53;;;;;;;;;;;10.40;88.20;;;;;;5089008;28;19951;-63
2023/10/19 03:01:29;;;;;;;;;;;10.40;88.40;;;;;;5096692;28;20681;-61
2023/10/19 03:04:04;;;;;;;;;;;10.50;88.40;;;;;;5096069;27;19928;-61
2023/10/19 03:06:37;;;;;;;;;;;10.40;88.60;;;;;;5087597;28;19924;-72
2023/10/19 03:09:04;;;;;;;;;;;10.50;88.70;;;;;;5090385;28;20009;-72
2023/10/19 03:11:40;;;;;;;;;;;10.40;88.50;;;;;;5091567;28;19925;-71
2023/10/19 03:14:06;;;;;;;;;;;10.50;88.50;;;;;;5090803;28;19971;-71
2023/10/19 03:16:42;;;;;;;;;;;10.40;88.50;;;;;;5091837;28;19924;-71
2023/10/19 03:19:20;;;;;;;;;;;10.40;88.60;;;;;;5103083;28;19967;-72
2023/10/19 03:21:55;;;;;;;;;;;10.50;88.70;;;;;;5101107;27;19924;-72
2023/10/19 03:24:35;;;;;;;;;;;10.50;88.50;;;;;;5098079;28;20023;-72
2023/10/19 03:27:15;;;;;;;;;;;10.50;88.60;;;;;;5101892;28;19934;-71
2023/10/19 03:29:53;;;;;;;;;;;10.50;88.60;;;;;;5084681;28;19979;-71
2023/10/19 03:32:28;;;;;;;;;;;10.50;88.70;;;;;;5095328;27;19932;-71
2023/10/19 03:35:01;;;;;;;;;;;10.50;88.70;;;;;;5101435;28;19923;-71
2023/10/19 03:37:36;;;;;;;;;;;10.50;88.70;;;;;;5099621;28;19936;-71
2023/10/19 03:40:14;;;;;;;;;;;10.50;88.90;;;;;;5111953;27;19924;-72
2023/10/19 03:42:54;;;;;;;;;;;10.50;89.10;;;;;;5098775;28;19931;-72
2023/10/19 03:45:30;;;;;;;;;;;10.50;88.80;;;;;;5098141;28;19928;-72
2023/10/19 03:48:08;;;;;;;;;;;10.60;88.80;;;;;;5100226;28;20379;-72
2023/10/19 03:50:42;;;;;;;;;;;10.50;89.00;;;;;;5097506;28;19924;-72
2023/10/19 03:53:15;;;;;;;;;;;10.60;89.00;;;;;;5098571;28;20014;-72
2023/10/19 03:55:49;;;;;;;;;;;10.60;88.90;;;;;;5094166;28;19927;-72
2023/10/19 03:58:24;;;;;;;;;;;10.60;89.00;;;;;;5108789;27;19931;-71
2023/10/19 04:01:04;;;;;;;;;;;10.60;89.40;;;;;;5081475;28;19947;-73
2023/10/19 04:03:38;;;;;;;;;;;10.60;89.10;;;;;;5097186;28;19925;-71
2023/10/19 04:06:14;;;;;;;;;;;10.60;89.10;;;;;;5094986;28;19924;-72
2023/10/19 04:08:50;;;;;;;;;;;10.60;89.10;;;;;;5094450;28;19947;-72
2023/10/19 04:11:32;;;;;;;;;;;10.60;89.10;;;;;;5098865;28;19936;-72
2023/10/19 04:14:09;;;;;;;;;;;10.60;89.40;;;;;;5084155;28;19931;-67
2023/10/19 04:16:43;;;;;;;;;;;10.60;89.20;;;;;;5094494;28;19938;-63
2023/10/19 04:19:16;;;;;;;;;;;10.60;89.00;;;;;;5093282;28;19932;-64
2023/10/19 04:21:50;;;;;;;;;;;10.60;89.20;;;;;;5098563;28;19924;-63
2023/10/19 04:24:24;;;;;;;;;;;10.60;89.20;;;;;;5097380;28;19934;-64
2023/10/19 04:26:59;;;;;;;;;;;10.60;89.20;;;;;;5080546;28;19928;-63
2023/10/19 04:29:35;;;;;;;;;;;10.70;89.20;;;;;;5098543;28;20401;-63
2023/10/19 04:32:08;;;;;;;;;;;10.70;89.20;;;;;;5099816;28;19924;-63
2023/10/19 04:34:42;;;;;;;;;;;10.70;89.30;;;;;;5097815;28;19932;-63
2023/10/19 04:37:18;;;;;;;;;;;10.70;89.20;;;;;;5098112;28;19928;-62
2023/10/19 04:39:51;;;;;;;;;;;10.70;89.20;;;;;;5099348;28;19938;-63
2023/10/19 04:42:27;;;;;;;;;;;10.70;89.30;;;;;;5097909;28;19930;-61
2023/10/19 04:45:01;;;;;;;;;;;10.70;89.20;;;;;;5099132;28;19932;-62
2023/10/19 04:47:35;;;;;;;;;;;10.70;89.20;;;;;;5095831;28;19928;-63
2023/10/19 04:50:10;;;;;;;;;;;10.70;89.00;;;;;;5096348;28;19937;-64
2023/10/19 04:52:43;;;;;;;;;;;10.70;89.20;;;;;;5099467;28;19939;-63
2023/10/19 04:55:16;;;;;;;;;;;10.70;89.20;;;;;;5100209;28;20279;-63
2023/10/19 04:57:50;;;;;;;;;;;10.70;89.10;;;;;;5099187;28;20357;-63
2023/10/19 05:00:27;;;;;;;;;;;10.70;89.20;;;;;;5111512;28;20290;-68
2023/10/19 05:03:01;;;;;;;;;;;10.70;89.10;;;;;;5082844;28;20020;-65
2023/10/19 05:05:28;;;;;;;;;;;10.70;89.40;;;;;;5098046;28;19978;-64
2023/10/19 05:08:01;;;;;;;;;;;10.70;88.90;;;;;;5100620;28;19979;-62
2023/10/19 05:10:34;;;;;;;;;;;10.70;89.20;;;;;;5098520;28;19969;-62
2023/10/19 05:13:07;;;;;;;;;;;10.70;89.20;;;;;;5101322;28;19947;-62
2023/10/19 05:15:42;;;;;;;;;;;10.70;89.30;;;;;;5098933;28;19976;-62
2023/10/19 05:18:16;;;;;;;;;;;10.70;89.70;;;;;;5100231;28;19927;-62
2023/10/19 05:20:43;;;;;;;;;;;10.70;89.60;;;;;;5099774;28;20382;-62
2023/10/19 05:23:16;;;;;;;;;;;10.70;89.00;;;;;;5097570;28;20027;-61
2023/10/19 05:25:43;;;;;;;;;;;10.70;89.60;;;;;;5098721;28;20105;-70
2023/10/19 05:28:16;;;;;;;;;;;10.70;89.40;;;;;;5098813;28;19973;-69
2023/10/19 05:30:50;;;;;;;;;;;10.70;89.50;;;;;;5096348;28;19955;-69
2023/10/19 05:33:24;;;;;;;;;;;10.70;89.50;;;;;;5100320;28;20390;-69
2023/10/19 05:35:57;;;;;;;;;;;10.70;89.90;;;;;;5103831;28;20290;-69
2023/10/19 05:38:31;;;;;;;;;;;10.70;89.70;;;;;;5102501;28;20015;-69
2023/10/19 05:41:05;;;;;;;;;;;10.70;89.90;;;;;;5101210;28;19932;-69
2023/10/19 05:43:38;;;;;;;;;;;10.80;90.00;;;;;;5096026;27;20273;-69
2023/10/19 05:46:16;;;;;;;;;;;10.80;89.80;;;;;;5103655;28;20382;-69
2023/10/19 05:48:50;;;;;;;;;;;10.80;89.80;;;;;;5102866;28;20373;-69
2023/10/19 05:51:24;;;;;;;;;;;10.70;89.80;;;;;;5102039;28;19928;-69
2023/10/19 05:54:01;;;;;;;;;;;10.80;89.90;;;;;;5102088;28;19927;-68
2023/10/19 05:56:35;;;;;;;;;;;10.80;89.80;;;;;;5086551;28;20436;-69
2023/10/19 05:59:10;;;;;;;;;;;10.80;89.90;;;;;;5101798;28;19927;-68
2023/10/19 06:01:46;;;;;;;;;;;10.70;90.20;;;;;;5096729;28;19932;-68
2023/10/19 06:04:20;;;;;;;;;;;10.80;90.10;;;;;;5097955;28;20336;-69
2023/10/19 06:06:53;;;;;;;;;;;10.80;89.90;;;;;;5094328;28;19924;-68
2023/10/19 06:09:29;;;;;;;;;;;10.80;90.10;;;;;;5098131;28;19927;-69
2023/10/19 06:12:03;;;;;;;;;;;10.80;90.10;;;;;;5101362;27;19970;-69
2023/10/19 06:14:37;;;;;;;;;;;10.80;89.80;;;;;;5100054;27;19928;-69
2023/10/19 06:17:13;;;;;;;;;;;10.80;89.80;;;;;;5098180;27;19948;-69
2023/10/19 06:19:46;;;;;;;;;;;10.80;89.60;;;;;;5097690;28;20055;-68
2023/10/19 06:22:19;;;;;;;;;;;10.80;89.90;;;;;;5099309;28;19939;-69
2023/10/19 06:24:52;;;;;;;;;;;10.80;89.70;;;;;;5102516;28;20441;-68
2023/10/19 06:27:26;;;;;;;;;;;10.90;89.60;;;;;;5100941;28;20390;-70
2023/10/19 06:29:59;;;;;;;;;;;10.90;89.40;;;;;;5087071;28;20374;-69
2023/10/19 06:32:33;;;;;;;;;;;10.90;89.70;;;;;;5089363;28;19928;-70
2023/10/19 06:35:07;;;;;;;;;;;10.90;89.70;;;;;;5096598;28;19928;-73
2023/10/19 06:37:41;;;;;;;;;;;10.90;89.80;;;;;;5093620;28;19924;-73
2023/10/19 06:40:16;;;;;;;;;;;10.90;90.10;;;;;;5100202;27;20366;-73
2023/10/19 06:42:49;;;;;;;;;;;10.90;90.00;;;;;;5082623;28;19935;-72
2023/10/19 06:45:22;;;;;;;;;;;10.90;90.00;;;;;;5096974;28;20020;-72
2023/10/19 06:47:58;;;;;;;;;;;10.90;90.30;;;;;;5100682;27;20026;-72
2023/10/19 06:50:31;;;;;;;;;;;10.90;90.10;;;;;;5102947;28;20290;-72
2023/10/19 06:53:05;;;;;;;;;;;11.00;90.00;;;;;;5101740;28;20022;-73
2023/10/19 06:55:43;;;;;;;;;;;10.90;90.70;;;;;;5096618;27;19924;-73
2023/10/19 06:58:19;;;;;;;;;;;10.90;90.40;;;;;;5098615;28;19938;-73
2023/10/19 07:00:59;;;;;;;;;;;11.00;90.30;;;;;;5094547;28;19931;-73
2023/10/19 07:03:33;;;;;;;;;;;11.00;90.30;;;;;;5099348;27;20294;-73
2023/10/19 07:06:08;;;;;;;;;;;11.00;90.30;;;;;;5099830;28;20057;-73
2023/10/19 07:08:41;;;;;;;;;;;11.10;90.30;;;;;;5097050;27;19927;-73
2023/10/19 07:11:15;;;;;;;;;;;11.10;90.40;;;;;;5111637;27;20035;-73
2023/10/19 07:13:48;;;;;;;;;;;11.10;90.30;;;;;;5096769;28;19977;-72
2023/10/19 07:16:22;;;;;;;;;;;11.10;90.10;;;;;;5098153;28;19973;-72
2023/10/19 07:18:57;;;;;;;;;;;11.10;90.40;;;;;;5099550;28;19962;-73
2023/10/19 07:21:35;;;;;;;;;;;11.10;90.40;;;;;;5112608;27;19932;-72
2023/10/19 07:24:10;;;;;;;;;;;11.10;90.30;;;;;;5098019;28;19955;-73
2023/10/19 07:26:53;;;;;;;;;;;11.10;90.20;;;;;;5093674;28;19931;-72
2023/10/19 07:29:26;;;;;;;;;;;11.20;90.20;;;;;;5092792;28;20313;-71
2023/10/19 07:31:59;;;;;;;;;;;11.30;90.20;;;;;;5095713;28;19924;-73
2023/10/19 07:34:34;;;;;;;;;;;11.40;90.10;;;;;;5086942;28;20228;-71
2023/10/19 07:37:08;;;;;;;;;;;11.40;90.10;;;;;;5084737;28;20313;-73
2023/10/19 07:39:42;;;;;;;;;;;11.40;90.00;;;;;;5090135;28;19928;-73
2023/10/19 07:42:15;;;;;;;;;;;11.50;90.10;;;;;;5084966;27;19939;-72
2023/10/19 07:44:48;;;;;;;;;;;11.60;89.90;;;;;;5099635;28;20322;-72
2023/10/19 07:47:22;;;;;;;;;;;11.70;90.10;;;;;;5100791;27;19928;-72
2023/10/19 07:49:56;;;;;;;;;;;11.60;90.00;;;;;;5100238;28;20398;-72
2023/10/19 07:52:30;;;;;;;;;;;11.70;89.90;;;;;;5098487;28;19978;-71
2023/10/19 07:55:03;;;;;;;;;;;11.70;89.90;;;;;;5099770;28;20015;-72
2023/10/19 07:57:36;;;;;;;;;;;11.70;90.00;;;;;;5099716;28;19928;-73
2023/10/19 08:00:09;;;;;;;;;;;11.70;89.90;;;;;;5099718;28;19928;-73
2023/10/19 08:02:45;;;;;;;;;;;11.80;89.90;;;;;;5099599;28;19938;-73
2023/10/19 08:05:19;;;;;;;;;;;11.80;89.90;;;;;;5096724;28;20009;-73
2023/10/19 08:07:53;;;;;;;;;;;11.90;89.90;;;;;;5098227;28;20344;-73
2023/10/19 08:10:26;;;;;;;;;;;12.00;89.70;;;;;;5100529;28;19927;-71
2023/10/19 08:12:59;;;;;;;;;;;12.20;89.80;;;;;;5099731;27;19924;-73
2023/10/19 08:15:32;;;;;;;;;;;12.30;89.70;;;;;;5100800;28;19925;-71
2023/10/19 08:18:12;;;;;;;;;;;12.40;89.70;;;;;;5099523;27;20001;-72
2023/10/19 08:20:46;;;;;;;;;;;12.40;89.70;;;;;;5099081;28;20409;-72
2023/10/19 08:23:23;;;;;;;;;;;12.40;89.50;;;;;;5099617;28;20320;-72
2023/10/19 08:26:10;;;;;;;;;;;12.50;89.20;;;;;;5100557;28;24228;-73
2023/10/19 08:28:51;;;;;;;;;;;12.50;89.20;;;;;;5094785;28;19927;-73
2023/10/19 08:31:24;;;;;;;;;;;12.60;89.10;;;;;;5099745;28;19924;-72
2023/10/19 08:33:58;;;;;;;;;;;12.70;89.30;;;;;;5100804;28;19927;-73
2023/10/19 08:36:32;;;;;;;;;;;12.70;88.80;;;;;;5100400;28;19928;-72
2023/10/19 08:39:07;;;;;;;;;;;12.80;88.70;;;;;;5101166;28;20375;-73
2023/10/19 08:41:41;;;;;;;;;;;12.90;88.50;;;;;;5098378;28;20320;-73
2023/10/19 08:44:15;;;;;;;;;;;13.00;88.20;;;;;;5098886;28;20371;-72
2023/10/19 08:46:48;;;;;;;;;;;13.10;88.20;;;;;;5094918;28;19924;-61
2023/10/19 08:49:22;;;;;;;;;;;13.10;88.20;;;;;;5100273;28;20431;-62
2023/10/19 08:51:59;;;;;;;;;;;13.20;88.20;;;;;;5099832;28;19962;-62
2023/10/19 08:54:33;;;;;;;;;;;13.30;88.00;;;;;;5099108;28;20327;-67
2023/10/19 08:57:08;;;;;;;;;;;13.60;88.10;;;;;;5098633;28;20036;-66
2023/10/19 08:59:41;;;;;;;;;;;13.70;87.60;;;;;;5097813;28;19924;-65
2023/10/19 09:02:14;;;;;;;;;;;13.90;87.60;;;;;;5097304;28;20374;-66
2023/10/19 09:04:48;;;;;;;;;;;14.10;87.00;;;;;;5095059;28;20374;-66
2023/10/19 09:07:23;;;;;;;;;;;14.10;86.70;;;;;;5100106;28;19924;-66
2023/10/19 09:09:57;;;;;;;;;;;14.20;87.00;;;;;;5102701;27;19924;-66
2023/10/19 09:12:30;;;;;;;;;;;14.20;86.80;;;;;;5103745;28;19923;-66
2023/10/19 09:14:57;;;;;;;;;;;14.20;86.90;;;;;;5102379;28;19932;-66
2023/10/19 09:17:31;;;;;;;;;;;14.30;86.50;;;;;;5104079;28;20002;-67
2023/10/19 09:20:09;;;;;;;;;;;14.30;86.80;;;;;;5102131;28;20011;-66
2023/10/19 09:22:45;;;;;;;;;;;14.20;86.80;;;;;;5102364;28;19940;-66
2023/10/19 09:25:18;;;;;;;;;;;14.20;87.00;;;;;;5103803;28;19924;-66
2023/10/19 09:27:52;;;;;;;;;;;14.10;87.10;;;;;;5103930;28;19924;-66
2023/10/19 09:30:28;;;;;;;;;;;14.10;87.20;;;;;;5101247;28;19924;-66
2023/10/19 09:33:01;;;;;;;;;;;14.10;87.20;;;;;;5102523;28;19977;-66
2023/10/19 09:35:43;;;;;;;;;;;14.20;87.00;;;;;;5103965;28;19971;-66
2023/10/19 09:38:21;;;;;;;;;;;14.40;86.70;;;;;;5103277;28;20405;-67
2023/10/19 09:40:55;;;;;;;;;;;14.40;86.40;;;;;;5092550;28;19935;-66
2023/10/19 09:43:32;;;;;;;;;;;14.50;86.30;;;;;;5103843;27;20023;-66
2023/10/19 09:46:07;;;;;;;;;;;14.50;86.30;;;;;;5103226;27;19963;-66
2023/10/19 09:48:41;;;;;;;;;;;14.50;86.30;;;;;;5101943;28;19975;-67
2023/10/19 09:51:09;;;;;;;;;;;14.60;86.40;;;;;;5103036;28;19977;-66
2023/10/19 09:53:45;;;;;;;;;;;14.60;86.40;;;;;;5102795;28;19935;-66
2023/10/19 09:56:21;;;;;;;;;;;14.60;86.50;;;;;;5099262;27;19928;-66
2023/10/19 09:58:58;;;;;;;;;;;14.60;86.50;;;;;;5102244;28;19931;-66
2023/10/19 10:01:47;;;;;;;;;;;14.60;86.40;;;;;;5099621;27;19930;-65
2023/10/19 10:04:31;;;;;;;;;;;14.60;86.80;;;;;;5094857;27;19932;-64
2023/10/19 10:07:06;;;;;;;;;;;14.60;86.60;;;;;;5084356;28;19955;-63
2023/10/19 10:09:43;;;;;;;;;;;14.70;86.80;;;;;;5099097;27;19924;-64
2023/10/19 10:12:17;;;;;;;;;;;14.80;87.10;;;;;;5099626;28;20002;-63
2023/10/19 10:14:58;;;;;;;;;;;14.90;87.20;;;;;;5100378;28;19974;-63
2023/10/19 10:17:34;;;;;;;;;;;14.90;87.10;;;;;;5098315;28;20463;-60
2023/10/19 10:20:30;;;;;;;;;;;15.00;86.90;;;;;;5099329;28;19987;-61
2023/10/19 10:23:17;;;;;;;;;;;15.00;87.00;;;;;;5090613;27;19931;-62
2023/10/19 10:25:53;;;;;;;;;;;14.90;86.90;;;;;;5097636;28;19939;-62
2023/10/19 10:28:28;;;;;;;;;;;14.90;87.10;;;;;;5096779;28;19930;-63
2023/10/19 10:31:07;;;;;;;;;;;14.90;87.00;;;;;;5099822;28;20397;-61
2023/10/19 10:33:42;;;;;;;;;;;14.90;86.90;;;;;;5100255;28;19932;-62
2023/10/19 10:36:11;;;;;;;;;;;14.90;87.10;;;;;;5101452;28;19924;-61
2023/10/19 10:38:44;;;;;;;;;;;14.90;87.00;;;;;;5098158;28;20026;-62
2023/10/19 10:41:25;;;;;;;;;;;15.00;87.10;;;;;;5096950;28;19931;-62
2023/10/19 10:43:59;;;;;;;;;;;15.00;87.00;;;;;;5098428;27;20040;-61
2023/10/19 10:46:32;;;;;;;;;;;15.10;86.70;;;;;;5101555;28;20007;-61
2023/10/19 10:49:09;;;;;;;;;;;15.10;86.60;;;;;;5098342;28;20370;-62
2023/10/19 10:51:42;;;;;;;;;;;15.10;86.50;;;;;;5098342;28;20334;-61
2023/10/19 10:54:15;;;;;;;;;;;15.20;86.40;;;;;;5095661;27;19977;-61
2023/10/19 10:56:50;;;;;;;;;;;15.20;86.70;;;;;;5098094;28;19924;-61
2023/10/19 10:59:25;;;;;;;;;;;15.10;86.40;;;;;;5096151;28;20385;-62
2023/10/19 11:01:59;;;;;;;;;;;15.20;86.20;;;;;;5096520;28;19928;-62
2023/10/19 11:04:32;;;;;;;;;;;15.10;86.10;;;;;;5096574;28;19928;-62
2023/10/19 11:07:05;;;;;;;;;;;15.10;86.10;;;;;;5100243;27;19935;-61
2023/10/19 11:09:44;;;;;;;;;;;15.10;86.30;;;;;;5102504;28;19932;-62
2023/10/19 11:12:19;;;;;;;;;;;15.00;86.30;;;;;;5100188;27;19932;-62
2023/10/19 11:14:53;;;;;;;;;;;15.00;86.30;;;;;;5085710;28;19931;-63
2023/10/19 11:17:30;;;;;;;;;;;15.00;86.60;;;;;;5097511;28;20366;-63
2023/10/19 11:20:04;;;;;;;;;;;15.00;86.60;;;;;;5094632;28;19932;-61
2023/10/19 11:22:48;;;;;;;;;;;15.00;86.60;;;;;;5098413;27;20343;-64
2023/10/19 11:25:22;;;;;;;;;;;15.00;86.60;;;;;;5093814;28;20382;-62
2023/10/19 11:27:56;;;;;;;;;;;15.00;86.40;;;;;;5099960;28;19932;-63
2023/10/19 11:30:31;;;;;;;;;;;15.10;86.40;;;;;;5092200;27;19934;-63
2023/10/19 11:33:05;;;;;;;;;;;15.10;86.30;;;;;;5099932;28;19931;-63
2023/10/19 11:35:38;;;;;;;;;;;15.20;86.40;;;;;;5100451;28;20302;-63
2023/10/19 11:38:11;;;;;;;;;;;15.40;86.10;;;;;;5100147;28;20017;-63
2023/10/19 11:40:44;;;;;;;;;;;15.50;85.90;;;;;;5100038;28;19924;-63
2023/10/19 11:43:19;;;;;;;;;;;15.60;85.60;;;;;;5099675;28;20353;-61
2023/10/19 11:45:52;;;;;;;;;;;15.60;85.80;;;;;;5095589;28;19969;-62
2023/10/19 11:48:26;;;;;;;;;;;15.70;85.50;;;;;;5098031;28;20301;-61
2023/10/19 11:50:59;;;;;;;;;;;15.60;85.50;;;;;;5093602;28;19939;-63
2023/10/19 11:53:34;;;;;;;;;;;15.70;85.40;;;;;;5092951;28;19924;-62
2023/10/19 11:56:08;;;;;;;;;;;15.60;85.60;;;;;;5094856;28;19969;-62
2023/10/19 11:58:49;;;;;;;;;;;15.60;85.90;;;;;;5096842;28;20436;-63
2023/10/19 12:01:22;;;;;;;;;;;15.50;85.80;;;;;;5096385;28;19931;-62
2023/10/19 12:03:55;;;;;;;;;;;15.50;85.80;;;;;;5098940;28;19964;-61
2023/10/19 12:06:28;;;;;;;;;;;15.60;85.80;;;;;;5097289;28;19974;-63
2023/10/19 12:09:14;;;;;;;;;;;15.50;85.80;;;;;;5097108;28;19935;-63
2023/10/19 12:11:47;;;;;;;;;;;15.50;85.80;;;;;;5099235;28;19931;-63
2023/10/19 12:14:22;;;;;;;;;;;15.40;86.00;;;;;;5098569;27;19930;-62
2023/10/19 12:16:56;;;;;;;;;;;15.40;86.10;;;;;;5091414;28;20024;-62
2023/10/19 12:19:30;;;;;;;;;;;15.40;86.10;;;;;;5094248;27;19927;-63
2023/10/19 12:22:03;;;;;;;;;;;15.50;86.20;;;;;;5089434;28;20298;-62
2023/10/19 12:24:36;;;;;;;;;;;15.40;86.20;;;;;;5084784;28;19924;-66
2023/10/19 12:27:09;;;;;;;;;;;15.40;86.30;;;;;;5083754;28;19939;-66
2023/10/19 12:29:43;;;;;;;;;;;15.40;86.40;;;;;;5080991;28;19964;-66
2023/10/19 12:32:12;;;;;;;;;;;15.40;86.20;;;;;;5089722;28;19932;-65
2023/10/19 12:34:50;;;;;;;;;;;15.40;86.20;;;;;;5086482;28;19928;-66
2023/10/19 12:37:24;;;;;;;;;;;15.50;86.00;;;;;;5099152;28;19924;-67
2023/10/19 12:39:58;;;;;;;;;;;15.50;86.30;;;;;;5097101;28;19928;-66
2023/10/19 12:42:31;;;;;;;;;;;15.50;86.20;;;;;;5097822;28;19932;-66
2023/10/19 12:45:07;;;;;;;;;;;15.50;86.30;;;;;;5098330;28;20012;-67
2023/10/19 12:47:41;;;;;;;;;;;15.50;86.10;;;;;;5098194;28;19995;-66
2023/10/19 12:50:15;;;;;;;;;;;15.40;86.40;;;;;;5100565;28;19932;-66
2023/10/19 12:52:48;;;;;;;;;;;15.40;86.40;;;;;;5097617;28;19927;-66
2023/10/19 12:55:21;;;;;;;;;;;15.30;86.50;;;;;;5101144;28;19924;-67
2023/10/19 12:57:56;;;;;;;;;;;15.30;86.80;;;;;;5098139;28;20400;-66
2023/10/19 13:00:35;;;;;;;;;;;15.30;86.90;;;;;;5098929;28;19960;-66
2023/10/19 13:03:13;;;;;;;;;;;15.30;87.20;;;;;;5100417;28;19951;-66
2023/10/19 13:05:46;;;;;;;;;;;15.20;87.20;;;;;;5098746;28;20018;-66
2023/10/19 13:08:14;;;;;;;;;;;15.20;87.30;;;;;;5098078;28;20418;-66
2023/10/19 13:10:48;;;;;;;;;;;15.20;87.40;;;;;;5100313;28;19934;-66
2023/10/19 13:13:23;;;;;;;;;;;15.20;87.60;;;;;;5101311;28;20014;-66
2023/10/19 13:15:59;;;;;;;;;;;15.20;87.50;;;;;;5099379;28;20014;-67
2023/10/19 13:18:27;;;;;;;;;;;15.20;87.50;;;;;;5098934;28;19981;-66
2023/10/19 13:21:04;;;;;;;;;;;15.10;87.50;;;;;;5100596;28;20010;-68
2023/10/19 13:23:37;;;;;;;;;;;15.10;87.70;;;;;;5098978;28;19924;-66
2023/10/19 13:26:17;;;;;;;;;;;15.10;87.80;;;;;;5098481;28;19924;-67
2023/10/19 13:28:52;;;;;;;;;;;15.10;87.60;;;;;;5099867;28;19931;-66
2023/10/19 13:31:26;;;;;;;;;;;15.10;87.60;;;;;;5100234;28;19931;-65
2023/10/19 13:34:03;;;;;;;;;;;15.10;87.40;;;;;;5089970;28;19924;-66
2023/10/19 13:36:36;;;;;;;;;;;15.20;87.50;;;;;;5098945;28;19924;-66
2023/10/19 13:39:13;;;;;;;;;;;15.10;87.80;;;;;;5099199;28;19928;-65
2023/10/19 13:41:46;;;;;;;;;;;15.10;87.90;;;;;;5096930;28;19932;-66
2023/10/19 13:44:13;;;;;;;;;;;15.10;87.60;;;;;;5100761;28;19929;-66
2023/10/19 13:46:51;;;;;;;;;;;15.10;87.80;;;;;;5097071;28;19936;-65
2023/10/19 13:49:24;;;;;;;;;;;15.10;87.90;;;;;;5100161;28;19924;-64
2023/10/19 13:51:58;;;;;;;;;;;15.10;88.00;;;;;;5100524;28;19967;-64
2023/10/19 13:54:31;;;;;;;;;;;15.10;88.00;;;;;;5100495;28;19951;-66
2023/10/19 13:57:07;;;;;;;;;;;15.10;87.90;;;;;;5105834;27;20389;-67
2023/10/19 13:59:40;;;;;;;;;;;15.10;88.00;;;;;;5105131;27;19931;-68
2023/10/19 14:02:15;;;;;;;;;;;15.10;87.90;;;;;;5103812;28;19924;-65
2023/10/19 14:04:48;;;;;;;;;;;15.10;87.60;;;;;;5100005;28;20389;-66
2023/10/19 14:07:21;;;;;;;;;;;15.10;87.70;;;;;;5102661;28;20005;-66
2023/10/19 14:09:54;;;;;;;;;;;15.20;87.80;;;;;;5101003;27;19932;-68
2023/10/19 14:12:27;;;;;;;;;;;15.10;88.00;;;;;;5103191;28;19928;-65
2023/10/19 14:15:00;;;;;;;;;;;15.10;88.10;;;;;;5101641;28;19938;-66
2023/10/19 14:17:34;;;;;;;;;;;15.10;87.90;;;;;;5103148;28;19931;-66
2023/10/19 14:20:15;;;;;;;;;;;15.10;87.90;;;;;;5102309;28;19992;-65
2023/10/19 14:22:50;;;;;;;;;;;15.10;88.00;;;;;;5101689;27;20385;-67
2023/10/19 14:25:23;;;;;;;;;;;15.10;88.00;;;;;;5102993;28;19923;-65
2023/10/19 14:27:52;;;;;;;;;;;15.10;88.10;;;;;;5102586;28;19923;-67
2023/10/19 14:30:26;;;;;;;;;;;15.10;88.10;;;;;;5104169;28;20015;-66
2023/10/19 14:33:00;;;;;;;;;;;15.10;88.40;;;;;;5102321;28;20014;-67
2023/10/19 14:35:36;;;;;;;;;;;15.10;88.40;;;;;;5101960;28;19950;-67
2023/10/19 14:38:13;;;;;;;;;;;15.00;88.60;;;;;;5103284;28;19966;-65
2023/10/19 14:40:48;;;;;;;;;;;14.90;88.60;;;;;;5104027;27;20027;-66
2023/10/19 14:43:21;;;;;;;;;;;15.00;88.80;;;;;;5101501;28;20502;-65
2023/10/19 14:45:48;;;;;;;;;;;15.00;88.60;;;;;;5102795;28;19928;-64
2023/10/19 14:48:23;;;;;;;;;;;15.00;89.00;;;;;;5102745;28;20022;-62
2023/10/19 14:50:57;;;;;;;;;;;14.90;89.00;;;;;;5104038;28;20285;-62
2023/10/19 14:53:30;;;;;;;;;;;14.90;88.80;;;;;;5102648;28;19932;-62
2023/10/19 14:56:03;;;;;;;;;;;14.90;89.20;;;;;;5101499;28;19928;-62
2023/10/19 14:58:31;;;;;;;;;;;14.90;89.30;;;;;;5103585;28;19934;-62